createdAt,value
2018-10-07T00:00:31.355Z,100.00
2018-10-07T00:02:59.663Z,100.00
2018-10-07T00:05:27.967Z,100.00
2018-10-07T00:07:56.270Z,100.00
2018-10-07T00:10:24.579Z,100.00
2018-10-07T00:12:52.879Z,100.00
2018-10-07T00:15:21.191Z,100.00
2018-10-07T00:17:49.483Z,100.00
2018-10-07T00:20:17.771Z,100.00
2018-10-07T00:22:46.074Z,100.00
2018-10-07T00:25:14.365Z,100.00
2018-10-07T00:27:42.672Z,100.00
2018-10-07T00:30:10.959Z,100.00
2018-10-07T00:32:39.267Z,100.00
2018-10-07T00:35:07.587Z,100.00
2018-10-07T00:37:35.891Z,100.00
2018-10-07T00:40:04.174Z,100.00
2018-10-07T00:42:32.471Z,100.00
2018-10-07T00:45:00.779Z,100.00
2018-10-07T00:47:29.065Z,100.00
2018-10-07T00:49:57.645Z,100.00
2018-10-07T00:52:25.944Z,100.00
2018-10-07T00:54:54.247Z,100.00
2018-10-07T00:57:22.535Z,100.00
2018-10-07T00:59:50.830Z,100.00
2018-10-07T01:02:19.135Z,100.00
2018-10-07T01:04:47.436Z,100.00
2018-10-07T01:07:15.743Z,100.00
2018-10-07T01:09:44.044Z,100.00
2018-10-07T01:12:12.340Z,100.00
2018-10-07T01:14:40.639Z,100.00
2018-10-07T01:17:08.935Z,100.00
2018-10-07T01:19:37.239Z,100.00
2018-10-07T01:22:05.531Z,100.00
2018-10-07T01:24:33.842Z,100.00
2018-10-07T01:27:02.131Z,100.00
2018-10-07T01:29:30.419Z,100.00
2018-10-07T01:31:58.719Z,100.00
2018-10-07T01:34:27.019Z,100.00
2018-10-07T01:36:55.330Z,100.00
2018-10-07T01:39:23.628Z,100.00
2018-10-07T01:41:51.925Z,100.00
2018-10-07T01:44:20.223Z,100.00
2018-10-07T01:46:48.520Z,100.00
2018-10-07T01:49:16.827Z,100.00
2018-10-07T01:51:45.119Z,100.00
2018-10-07T01:54:13.414Z,100.00
2018-10-07T01:56:41.724Z,100.00
2018-10-07T01:59:10.036Z,100.00
2018-10-07T02:01:38.307Z,100.00
2018-10-07T02:04:06.611Z,100.00
2018-10-07T02:06:34.903Z,100.00
2018-10-07T02:09:03.215Z,100.00
2018-10-07T02:11:31.502Z,100.00
2018-10-07T02:13:59.814Z,100.00
2018-10-07T02:16:28.098Z,100.00
2018-10-07T02:18:56.392Z,100.00
2018-10-07T02:21:24.687Z,100.00
2018-10-07T02:23:52.991Z,100.00
2018-10-07T02:26:21.287Z,100.00
2018-10-07T02:28:49.598Z,100.00
2018-10-07T02:31:17.894Z,100.00
2018-10-07T02:33:46.227Z,100.00
2018-10-07T02:36:14.507Z,100.00
2018-10-07T02:38:42.803Z,100.00
2018-10-07T02:41:11.099Z,100.00
2018-10-07T02:43:39.407Z,100.00
2018-10-07T02:46:07.710Z,100.00
2018-10-07T02:48:36.032Z,100.00
2018-10-07T02:51:04.318Z,100.00
2018-10-07T02:53:32.616Z,100.00
2018-10-07T02:56:01.125Z,100.00
2018-10-07T02:58:29.414Z,100.00
2018-10-07T03:00:57.716Z,100.00
2018-10-07T03:03:26.027Z,100.00
2018-10-07T03:05:54.320Z,100.00
2018-10-07T03:08:22.627Z,100.00
2018-10-07T03:10:50.919Z,100.00
2018-10-07T03:13:19.216Z,100.00
2018-10-07T03:15:47.523Z,100.00
2018-10-07T03:18:15.819Z,100.00
2018-10-07T03:20:44.111Z,100.00
2018-10-07T03:23:12.414Z,100.00
2018-10-07T03:25:40.706Z,100.00
2018-10-07T03:28:09.024Z,100.00
2018-10-07T03:30:37.315Z,100.00
2018-10-07T03:33:05.610Z,100.00
2018-10-07T03:35:33.927Z,100.00
2018-10-07T03:38:02.227Z,100.00
2018-10-07T03:40:30.519Z,100.00
2018-10-07T03:42:58.839Z,100.00
2018-10-07T03:45:27.127Z,100.00
2018-10-07T03:47:55.435Z,100.00
2018-10-07T03:50:23.730Z,100.00
2018-10-07T03:52:52.019Z,100.00
2018-10-07T03:55:20.328Z,100.00
2018-10-07T03:57:48.629Z,100.00
2018-10-07T04:00:16.920Z,100.00
2018-10-07T04:02:45.222Z,100.00
2018-10-07T04:05:13.515Z,100.00
2018-10-07T04:07:41.819Z,100.00
2018-10-07T04:10:10.115Z,100.00
2018-10-07T04:12:38.419Z,100.00
2018-10-07T04:15:06.723Z,100.00
2018-10-07T04:17:35.015Z,100.00
2018-10-07T04:20:03.323Z,100.00
2018-10-07T04:22:31.611Z,100.00
2018-10-07T04:24:59.928Z,100.00
2018-10-07T04:27:28.220Z,100.00
2018-10-07T04:29:56.522Z,100.00
2018-10-07T04:32:24.820Z,100.00
2018-10-07T04:34:53.123Z,100.00
2018-10-07T04:37:21.478Z,100.00
2018-10-07T04:39:49.806Z,100.00
2018-10-07T04:42:18.076Z,100.00
2018-10-07T04:44:46.386Z,100.00
2018-10-07T04:47:14.680Z,100.00
2018-10-07T04:49:42.972Z,100.00
2018-10-07T04:52:11.279Z,100.00
2018-10-07T04:54:39.581Z,100.00
2018-10-07T04:57:07.867Z,100.00
2018-10-07T04:59:36.179Z,100.00
2018-10-07T05:02:04.476Z,100.00
2018-10-07T05:04:32.770Z,100.00
2018-10-07T05:07:01.077Z,100.00
2018-10-07T05:09:29.371Z,100.00
2018-10-07T05:11:57.709Z,100.00
2018-10-07T05:14:25.966Z,100.00
2018-10-07T05:16:54.255Z,100.00
2018-10-07T05:19:22.548Z,100.00
2018-10-07T05:21:50.859Z,100.00
2018-10-07T05:24:19.146Z,100.00
2018-10-07T05:26:47.443Z,100.00
2018-10-07T05:29:15.747Z,100.00
2018-10-07T05:31:44.037Z,100.00
2018-10-07T05:34:12.326Z,100.00
2018-10-07T05:36:40.635Z,100.00
2018-10-07T05:39:08.942Z,100.00
2018-10-07T05:41:37.239Z,100.00
2018-10-07T05:44:05.547Z,100.00
2018-10-07T05:46:33.892Z,100.00
2018-10-07T05:49:02.187Z,100.00
2018-10-07T05:51:30.498Z,100.00
2018-10-07T05:53:58.787Z,100.00
2018-10-07T05:56:27.088Z,100.00
2018-10-07T05:58:55.398Z,100.00
2018-10-07T06:01:23.694Z,100.00
2018-10-07T06:03:51.987Z,100.00
2018-10-07T06:06:20.345Z,100.00
2018-10-07T06:08:48.634Z,100.00
2018-10-07T06:11:16.923Z,100.00
2018-10-07T06:13:45.230Z,100.00
2018-10-07T06:16:13.519Z,100.00
2018-10-07T06:18:41.806Z,100.00
2018-10-07T06:21:10.110Z,100.00
2018-10-07T06:23:38.407Z,100.00
2018-10-07T06:26:06.699Z,100.00
2018-10-07T06:28:35.013Z,100.00
2018-10-07T06:31:03.306Z,100.00
2018-10-07T06:33:31.599Z,100.00
2018-10-07T06:35:59.911Z,100.00
2018-10-07T06:38:28.274Z,100.00
2018-10-07T06:40:56.507Z,100.00
2018-10-07T06:43:24.816Z,100.00
2018-10-07T06:45:53.136Z,100.00
2018-10-07T06:48:21.439Z,100.00
2018-10-07T06:50:49.743Z,100.00
2018-10-07T06:53:18.040Z,100.00
2018-10-07T06:55:46.330Z,100.00
2018-10-07T06:58:14.635Z,100.00
2018-10-07T07:00:42.932Z,100.00
2018-10-07T07:03:11.226Z,100.00
2018-10-07T07:05:39.537Z,100.00
2018-10-07T07:08:07.831Z,100.00
2018-10-07T07:10:36.127Z,100.00
2018-10-07T07:13:04.635Z,100.00
2018-10-07T07:15:32.908Z,100.00
2018-10-07T07:18:01.195Z,100.00
2018-10-07T07:20:29.523Z,100.00
2018-10-07T07:22:57.831Z,100.00
2018-10-07T07:25:26.147Z,100.00
2018-10-07T07:27:54.459Z,100.00
2018-10-07T07:30:22.759Z,100.00
2018-10-07T07:32:51.075Z,100.00
2018-10-07T07:35:19.381Z,100.00
2018-10-07T07:37:47.671Z,100.00
2018-10-07T07:40:15.975Z,100.00
2018-10-07T07:42:44.293Z,100.00
2018-10-07T07:45:12.587Z,100.00
2018-10-07T07:47:40.882Z,100.00
2018-10-07T07:50:09.198Z,100.00
2018-10-07T07:52:37.490Z,100.00
2018-10-07T07:55:05.784Z,100.00
2018-10-07T07:57:34.091Z,100.00
2018-10-07T08:00:02.468Z,100.00
2018-10-07T08:02:30.759Z,100.00
2018-10-07T08:04:59.071Z,100.00
2018-10-07T08:07:27.374Z,100.00
2018-10-07T08:09:55.661Z,100.00
2018-10-07T08:12:23.959Z,99.71
2018-10-07T08:14:52.328Z,97.59
2018-10-07T08:17:20.599Z,95.49
2018-10-07T08:19:48.872Z,96.47
2018-10-07T08:22:17.160Z,100.00
2018-10-07T08:24:45.448Z,100.00
2018-10-07T08:27:13.753Z,100.00
2018-10-07T08:29:42.129Z,99.89
2018-10-07T08:32:10.316Z,95.04
2018-10-07T08:34:38.626Z,93.13
2018-10-07T08:37:06.902Z,92.89
2018-10-07T08:39:35.187Z,96.79
2018-10-07T08:42:03.583Z,93.09
2018-10-07T08:44:31.871Z,91.01
2018-10-07T08:47:00.155Z,94.59
2018-10-07T08:49:28.462Z,89.63
2018-10-07T08:51:56.742Z,92.56
2018-10-07T08:54:25.158Z,90.28
2018-10-07T08:56:53.423Z,88.21
2018-10-07T08:59:21.707Z,84.99
2018-10-07T09:01:49.999Z,87.56
2018-10-07T09:04:18.299Z,83.50
2018-10-07T09:06:46.588Z,83.31
2018-10-07T09:09:14.871Z,83.54
2018-10-07T09:11:43.162Z,81.45
2018-10-07T09:14:11.443Z,83.37
2018-10-07T09:16:39.739Z,82.17
2018-10-07T09:19:08.023Z,83.23
2018-10-07T09:21:36.311Z,85.37
2018-10-07T09:24:04.607Z,85.13
2018-10-07T09:26:32.892Z,84.69
2018-10-07T09:29:01.230Z,83.97
2018-10-07T09:31:29.483Z,82.34
2018-10-07T09:33:57.770Z,81.81
2018-10-07T09:36:26.067Z,82.72
2018-10-07T09:38:54.355Z,81.22
2018-10-07T09:41:22.634Z,80.04
2018-10-07T09:43:50.931Z,80.48
2018-10-07T09:46:19.411Z,79.45
2018-10-07T09:48:47.723Z,79.98
2018-10-07T09:51:16.219Z,77.53
2018-10-07T09:53:44.507Z,79.58
2018-10-07T09:56:12.807Z,79.22
2018-10-07T09:58:41.096Z,77.02
2018-10-07T10:01:09.461Z,78.58
2018-10-07T10:03:37.691Z,77.17
2018-10-07T10:06:07.625Z,76.01
2018-10-07T10:08:35.891Z,77.95
2018-10-07T10:11:04.248Z,76.36
2018-10-07T10:13:32.519Z,78.94
2018-10-07T10:16:00.815Z,75.87
2018-10-07T10:18:29.102Z,77.11
2018-10-07T10:20:57.407Z,75.77
2018-10-07T10:23:25.703Z,75.41
2018-10-07T10:25:53.999Z,75.05
2018-10-07T10:28:22.306Z,74.49
2018-10-07T10:30:50.618Z,74.85
2018-10-07T10:33:18.973Z,76.88
2018-10-07T10:35:47.239Z,73.91
2018-10-07T10:38:15.539Z,74.79
2018-10-07T10:40:43.843Z,76.08
2018-10-07T10:43:12.163Z,75.77
2018-10-07T10:45:40.488Z,75.52
2018-10-07T10:48:08.836Z,74.89
2018-10-07T10:50:37.079Z,75.61
2018-10-07T10:53:05.369Z,75.34
2018-10-07T10:55:33.971Z,73.13
2018-10-07T10:58:02.275Z,72.32
2018-10-07T11:00:30.563Z,71.31
2018-10-07T11:02:58.884Z,72.67
2018-10-07T11:05:27.213Z,72.09
2018-10-07T11:07:55.515Z,74.12
2018-10-07T11:10:23.803Z,72.40
2018-10-07T11:12:52.107Z,72.13
2018-10-07T11:15:20.442Z,71.95
2018-10-07T11:17:48.687Z,73.21
2018-10-07T11:20:17.003Z,72.40
2018-10-07T11:22:45.291Z,71.84
2018-10-07T11:25:13.590Z,71.48
2018-10-07T11:27:41.887Z,71.77
2018-10-07T11:30:10.183Z,71.34
2018-10-07T11:32:38.482Z,73.41
2018-10-07T11:35:06.792Z,70.86
2018-10-07T11:37:35.105Z,71.09
2018-10-07T11:40:03.462Z,71.52
2018-10-07T11:42:31.726Z,72.82
2018-10-07T11:45:00.023Z,71.24
2018-10-07T11:47:28.310Z,73.15
2018-10-07T11:49:56.614Z,72.55
2018-10-07T11:52:24.902Z,73.42
2018-10-07T11:54:52.895Z,73.46
2018-10-07T11:57:21.204Z,73.17
2018-10-07T11:59:49.494Z,72.48
2018-10-07T12:02:17.881Z,71.39
2018-10-07T12:04:46.100Z,71.99
2018-10-07T12:07:14.387Z,70.20
2018-10-07T12:09:42.683Z,69.83
2018-10-07T12:12:10.979Z,70.26
2018-10-07T12:14:39.275Z,70.40
2018-10-07T12:17:07.584Z,71.10
2018-10-07T12:19:35.863Z,69.01
2018-10-07T12:22:04.151Z,68.37
2018-10-07T12:24:32.534Z,70.46
2018-10-07T12:27:00.831Z,68.99
2018-10-07T12:29:29.147Z,68.79
2018-10-07T12:31:57.431Z,67.81
2018-10-07T12:34:25.719Z,66.37
2018-10-07T12:36:54.081Z,66.74
2018-10-07T12:39:22.363Z,68.28
2018-10-07T12:41:50.655Z,69.24
2018-10-07T12:44:18.951Z,65.72
2018-10-07T12:46:47.235Z,68.68
2018-10-07T12:49:15.543Z,68.27
2018-10-07T12:51:43.843Z,67.23
2018-10-07T12:54:12.383Z,67.08
2018-10-07T12:56:40.435Z,66.02
2018-10-07T12:59:08.726Z,64.95
2018-10-07T13:01:37.019Z,66.99
2018-10-07T13:04:05.332Z,68.83
2018-10-07T13:06:33.627Z,65.89
2018-10-07T13:09:01.922Z,67.80
2018-10-07T13:11:30.227Z,65.12
2018-10-07T13:13:58.523Z,65.46
2018-10-07T13:16:26.815Z,65.30
2018-10-07T13:18:55.121Z,63.90
2018-10-07T13:21:23.411Z,64.87
2018-10-07T13:23:51.700Z,66.88
2018-10-07T13:28:47.352Z,64.64
2018-10-07T13:31:15.627Z,65.19
2018-10-07T13:33:43.992Z,66.13
2018-10-07T13:36:12.211Z,66.15
2018-10-07T13:38:40.495Z,64.67
2018-10-07T13:41:08.814Z,64.51
2018-10-07T13:43:37.092Z,64.41
2018-10-07T13:46:05.370Z,64.23
2018-10-07T13:48:33.666Z,64.92
2018-10-07T13:51:01.951Z,64.08
2018-10-07T13:53:30.270Z,65.40
2018-10-07T13:55:58.552Z,65.25
2018-10-07T13:58:26.830Z,65.88
2018-10-07T14:00:55.115Z,66.47
2018-10-07T14:03:23.433Z,66.06
2018-10-07T14:05:51.695Z,65.03
2018-10-07T14:08:19.998Z,68.42
2018-10-07T14:10:48.293Z,66.38
2018-10-07T14:13:16.574Z,66.92
2018-10-07T14:15:44.863Z,67.21
2018-10-07T14:18:13.167Z,66.69
2018-10-07T14:20:41.454Z,66.75
2018-10-07T14:23:09.742Z,67.08
2018-10-07T14:25:38.048Z,66.49
2018-10-07T14:28:06.344Z,66.61
2018-10-07T14:30:34.629Z,68.12
2018-10-07T14:35:30.287Z,68.93
2018-10-07T14:37:59.295Z,68.59
2018-10-07T14:40:27.594Z,67.74
2018-10-07T14:42:55.870Z,67.23
2018-10-07T14:45:24.171Z,67.15
2018-10-07T14:47:52.479Z,67.70
2018-10-07T14:50:20.771Z,67.65
2018-10-07T14:52:49.059Z,66.56
2018-10-07T14:55:17.462Z,66.89
2018-10-07T14:57:45.774Z,65.58
2018-10-07T15:00:14.067Z,66.14
2018-10-07T15:02:42.367Z,67.80
2018-10-07T15:05:10.663Z,68.03
2018-10-07T15:07:38.955Z,67.78
2018-10-07T15:10:07.278Z,67.27
2018-10-07T15:12:35.574Z,68.17
2018-10-07T15:15:03.863Z,67.41
2018-10-07T15:17:32.170Z,66.45
2018-10-07T15:20:00.464Z,67.43
2018-10-07T15:22:28.754Z,69.00
2018-10-07T15:24:57.059Z,67.71
2018-10-07T15:27:25.350Z,69.29
2018-10-07T15:29:53.700Z,71.54
2018-10-07T15:32:21.945Z,69.03
2018-10-07T15:34:50.246Z,68.16
2018-10-07T15:37:18.532Z,69.69
2018-10-07T15:39:46.835Z,67.45
2018-10-07T15:42:15.131Z,67.95
2018-10-07T15:44:43.426Z,67.08
2018-10-07T15:47:11.727Z,68.11
2018-10-07T15:49:40.020Z,67.36
2018-10-07T15:52:08.312Z,67.62
2018-10-07T15:54:36.614Z,67.46
2018-10-07T15:57:04.899Z,69.05
2018-10-07T15:59:33.195Z,70.48
2018-10-07T16:02:01.498Z,68.30
2018-10-07T16:04:29.790Z,71.03
2018-10-07T16:06:58.085Z,69.60
2018-10-07T16:09:26.391Z,69.25
2018-10-07T16:11:54.679Z,69.42
2018-10-07T16:14:22.975Z,69.76
2018-10-07T16:16:51.278Z,70.42
2018-10-07T16:19:19.577Z,71.81
2018-10-07T16:21:47.866Z,71.97
2018-10-07T16:24:16.206Z,71.25
2018-10-07T16:26:44.582Z,73.13
2018-10-07T16:29:12.751Z,72.63
2018-10-07T16:31:41.050Z,72.07
2018-10-07T16:34:09.334Z,73.45
2018-10-07T16:36:37.635Z,74.31
2018-10-07T16:39:05.976Z,76.52
2018-10-07T16:41:34.215Z,78.39
2018-10-07T16:44:02.523Z,79.65
2018-10-07T16:46:30.808Z,81.16
2018-10-07T16:48:59.103Z,81.41
2018-10-07T16:51:27.399Z,82.73
2018-10-07T16:53:55.683Z,82.87
2018-10-07T16:56:23.971Z,83.96
2018-10-07T16:58:52.271Z,84.71
2018-10-07T17:01:20.559Z,85.42
2018-10-07T17:03:48.851Z,85.86
2018-10-07T17:06:17.148Z,84.99
2018-10-07T17:08:45.439Z,86.26
2018-10-07T17:11:13.727Z,86.67
2018-10-07T17:13:42.027Z,86.05
2018-10-07T17:16:10.312Z,86.64
2018-10-07T17:18:38.595Z,87.21
2018-10-07T17:21:06.943Z,86.05
2018-10-07T17:23:35.183Z,87.70
2018-10-07T17:26:03.483Z,88.61
2018-10-07T17:28:31.767Z,89.72
2018-10-07T17:31:00.051Z,89.42
2018-10-07T17:33:28.351Z,88.71
2018-10-07T17:35:56.630Z,89.72
2018-10-07T17:38:24.935Z,89.62
2018-10-07T17:40:53.215Z,90.89
2018-10-07T17:43:21.519Z,90.84
2018-10-07T17:45:49.800Z,90.67
2018-10-07T17:48:18.215Z,91.65
2018-10-07T17:50:46.387Z,91.74
2018-10-07T17:53:14.671Z,91.92
2018-10-07T17:55:42.967Z,93.11
2018-10-07T17:58:11.429Z,92.29
2018-10-07T18:00:39.715Z,93.43
2018-10-07T18:03:08.084Z,95.18
2018-10-07T18:05:36.296Z,96.08
2018-10-07T18:08:04.578Z,96.71
2018-10-07T18:10:32.890Z,98.87
2018-10-07T18:13:01.171Z,98.14
2018-10-07T18:15:29.461Z,99.63
2018-10-07T18:17:57.999Z,98.30
2018-10-07T18:20:26.250Z,99.19
2018-10-07T18:22:54.536Z,99.06
2018-10-07T18:25:22.835Z,100.00
2018-10-07T18:27:51.126Z,100.00
2018-10-07T18:30:19.419Z,99.79
2018-10-07T18:32:47.727Z,100.00
2018-10-07T18:35:16.030Z,100.00
2018-10-07T18:37:44.315Z,100.00
2018-10-07T18:40:13.724Z,100.00
2018-10-07T18:42:41.995Z,100.00
2018-10-07T18:45:10.287Z,100.00
2018-10-07T18:47:38.652Z,100.00
2018-10-07T18:50:07.067Z,100.00
2018-10-07T18:52:35.362Z,100.00
2018-10-07T18:55:04.438Z,100.00
2018-10-07T18:57:32.731Z,100.00
2018-10-07T19:00:01.043Z,100.00
2018-10-07T19:02:29.433Z,100.00
2018-10-07T19:04:57.737Z,100.00
2018-10-07T19:07:26.178Z,100.00
2018-10-07T19:09:54.619Z,100.00
2018-10-07T19:12:23.070Z,100.00
2018-10-07T19:14:51.555Z,100.00
2018-10-07T19:17:20.040Z,100.00
2018-10-07T19:19:48.386Z,100.00
2018-10-07T19:22:16.732Z,100.00
2018-10-07T19:24:45.146Z,100.00
2018-10-07T19:27:13.551Z,100.00
2018-10-07T19:29:41.946Z,100.00
2018-10-07T19:32:10.320Z,100.00
2018-10-07T19:34:38.689Z,100.00
2018-10-07T19:37:07.036Z,100.00
2018-10-07T19:39:35.332Z,100.00
2018-10-07T19:42:03.627Z,100.00
2018-10-07T19:44:31.992Z,100.00
2018-10-07T19:47:00.355Z,100.00
2018-10-07T19:49:28.684Z,100.00
2018-10-07T19:51:56.975Z,100.00
2018-10-07T19:54:25.300Z,100.00
2018-10-07T19:56:53.608Z,100.00
2018-10-07T19:59:21.941Z,100.00
2018-10-07T20:01:50.244Z,100.00
2018-10-07T20:04:18.557Z,100.00
2018-10-07T20:06:46.858Z,100.00
2018-10-07T20:09:15.166Z,100.00
2018-10-07T20:11:43.466Z,100.00
2018-10-07T20:14:11.768Z,100.00
2018-10-07T20:16:40.063Z,100.00
2018-10-07T20:19:08.408Z,100.00
2018-10-07T20:21:36.666Z,100.00
2018-10-07T20:24:04.959Z,100.00
2018-10-07T20:26:33.271Z,100.00
2018-10-07T20:29:01.573Z,100.00
2018-10-07T20:31:29.855Z,100.00
2018-10-07T20:33:58.303Z,100.00
2018-10-07T20:36:26.579Z,100.00
2018-10-07T20:38:54.874Z,100.00
2018-10-07T20:41:23.790Z,100.00
2018-10-07T20:43:52.110Z,100.00
2018-10-07T20:46:20.438Z,100.00
2018-10-07T20:48:48.719Z,100.00
2018-10-07T20:51:17.024Z,100.00
2018-10-07T20:53:45.337Z,100.00
2018-10-07T20:56:13.623Z,100.00
2018-10-07T20:58:41.930Z,100.00
2018-10-07T21:01:10.223Z,100.00
2018-10-07T21:03:38.511Z,100.00
2018-10-07T21:06:06.823Z,100.00
2018-10-07T21:08:35.119Z,100.00
2018-10-07T21:11:03.410Z,100.00
2018-10-07T21:13:31.717Z,100.00
2018-10-07T21:16:00.007Z,100.00
2018-10-07T21:18:28.319Z,100.00
2018-10-07T21:20:56.639Z,100.00
2018-10-07T21:23:24.932Z,100.00
2018-10-07T21:25:53.239Z,100.00
2018-10-07T21:28:21.571Z,100.00
2018-10-07T21:30:49.831Z,100.00
2018-10-07T21:33:18.135Z,100.00
2018-10-07T21:35:46.427Z,100.00
2018-10-07T21:38:14.734Z,100.00
2018-10-07T21:40:43.028Z,100.00
2018-10-07T21:43:11.339Z,100.00
2018-10-07T21:45:39.647Z,100.00
2018-10-07T21:48:07.939Z,100.00
2018-10-07T21:50:36.231Z,100.00
2018-10-07T21:53:04.543Z,100.00
2018-10-07T21:55:32.843Z,100.00
2018-10-07T21:58:01.146Z,100.00
2018-10-07T22:00:29.443Z,100.00
2018-10-07T22:02:57.730Z,100.00
2018-10-07T22:05:26.363Z,100.00
2018-10-07T22:07:54.659Z,100.00
2018-10-07T22:10:22.955Z,100.00
2018-10-07T22:12:51.271Z,100.00
2018-10-07T22:15:19.564Z,100.00
2018-10-07T22:17:47.866Z,100.00
2018-10-07T22:20:16.179Z,100.00
2018-10-07T22:22:44.463Z,100.00
2018-10-07T22:25:12.775Z,100.00
2018-10-07T22:27:41.067Z,100.00
2018-10-07T22:30:09.364Z,100.00
2018-10-07T22:32:37.670Z,100.00
2018-10-07T22:35:05.959Z,100.00
2018-10-07T22:37:34.282Z,100.00
2018-10-07T22:40:02.579Z,100.00
2018-10-07T22:42:30.871Z,100.00
2018-10-07T22:44:59.289Z,100.00
2018-10-07T22:47:27.587Z,100.00
2018-10-07T22:49:56.217Z,100.00
2018-10-07T22:52:24.639Z,100.00
2018-10-07T22:54:52.931Z,100.00
2018-10-07T22:57:21.307Z,100.00
2018-10-07T22:59:49.598Z,100.00
2018-10-07T23:02:17.903Z,100.00
2018-10-07T23:04:46.225Z,100.00
2018-10-07T23:07:14.518Z,100.00
2018-10-07T23:09:42.828Z,100.00
2018-10-07T23:12:11.132Z,100.00
2018-10-07T23:14:39.430Z,100.00
2018-10-07T23:17:07.763Z,100.00
2018-10-07T23:19:36.128Z,100.00
2018-10-07T23:22:04.469Z,100.00
2018-10-07T23:24:32.776Z,100.00
2018-10-07T23:27:01.083Z,100.00
2018-10-07T23:29:29.377Z,100.00
2018-10-07T23:31:57.678Z,100.00
2018-10-07T23:34:25.966Z,100.00
2018-10-07T23:36:54.271Z,100.00
2018-10-07T23:39:22.567Z,100.00
2018-10-07T23:41:50.855Z,100.00
2018-10-07T23:44:19.169Z,100.00
2018-10-07T23:46:48.279Z,100.00
2018-10-07T23:49:16.570Z,100.00
2018-10-07T23:51:44.929Z,100.00
2018-10-07T23:54:13.188Z,100.00
2018-10-07T23:56:41.479Z,100.00
2018-10-07T23:59:09.771Z,100.00
